createdAt,value
2023-01-11T00:00:12.373Z,100601.55
2023-01-11T00:02:41.462Z,100599.75
2023-01-11T00:05:11.972Z,100598.77
2023-01-11T00:07:42.017Z,100605.08
2023-01-11T00:10:12.216Z,100605.08
2023-01-11T00:12:41.725Z,100599.28
2023-01-11T00:15:12.631Z,100602.42
2023-01-11T00:17:42.635Z,100594.91
2023-01-11T00:20:12.599Z,100587.93
2023-01-11T00:22:42.366Z,100589.99
2023-01-11T00:25:12.141Z,100589.99
2023-01-11T00:27:41.878Z,100586.16
2023-01-11T00:30:12.098Z,100594.80
2023-01-11T00:32:41.917Z,100587.02
2023-01-11T00:35:11.799Z,100600.19
2023-01-11T00:37:41.594Z,100593.91
2023-01-11T00:40:11.799Z,100595.97
2023-01-11T00:42:59.225Z,100593.45
2023-01-11T00:45:47.433Z,100591.05
2023-01-11T00:48:16.938Z,100600.73
2023-01-11T00:50:46.782Z,100599.81
2023-01-11T00:53:17.953Z,100600.52
2023-01-11T00:55:47.755Z,100606.97
2023-01-11T00:58:17.416Z,100596.53
2023-01-11T01:00:47.257Z,100596.63
2023-01-11T01:03:16.834Z,100591.86
2023-01-11T01:05:46.605Z,100598.70
2023-01-11T01:08:16.325Z,100595.14
2023-01-11T01:10:46.093Z,100584.67
2023-01-11T01:13:33.299Z,100593.43
2023-01-11T01:16:03.097Z,100593.00
2023-01-11T01:18:32.925Z,100596.23
2023-01-11T01:21:02.971Z,100593.59
2023-01-11T01:23:33.037Z,100593.59
2023-01-11T01:26:04.990Z,100584.77
2023-01-11T01:28:34.936Z,100586.14
2023-01-11T01:31:05.813Z,100575.81
2023-01-11T01:33:36.474Z,100574.19
2023-01-11T01:36:07.175Z,100579.53
2023-01-11T01:38:37.251Z,100576.82
2023-01-11T01:41:07.153Z,100574.92
2023-01-11T01:43:51.949Z,100578.72
2023-01-11T01:46:24.045Z,100575.77
2023-01-11T01:49:09.107Z,100573.98
2023-01-11T01:51:51.056Z,100566.34
2023-01-11T01:54:23.943Z,100563.74
2023-01-11T01:56:56.924Z,100569.83
2023-01-11T01:59:29.477Z,100559.66
2023-01-11T02:02:00.478Z,100561.88
2023-01-11T02:04:36.201Z,100561.06
2023-01-11T02:07:21.523Z,100561.64
2023-01-11T02:09:59.994Z,100559.94
2023-01-11T02:12:35.815Z,100557.98
2023-01-11T02:15:08.237Z,100552.55
2023-01-11T02:17:38.201Z,100549.37
2023-01-11T02:20:22.478Z,100551.32
2023-01-11T02:22:57.863Z,100541.72
2023-01-11T02:25:36.532Z,100534.32
2023-01-11T02:28:25.224Z,100529.06
2023-01-11T02:31:31.700Z,100524.73
2023-01-11T02:34:10.556Z,100520.24
2023-01-11T02:36:46.822Z,100511.33
2023-01-11T02:39:42.379Z,100510.16
2023-01-11T02:43:02.144Z,100502.56
2023-01-11T02:46:03.866Z,100508.14
2023-01-11T02:48:39.302Z,100506.23
2023-01-11T02:51:17.688Z,100509.41
2023-01-11T02:53:59.542Z,100504.21
2023-01-11T02:56:32.352Z,100506.16
2023-01-11T02:59:05.099Z,100500.83
2023-01-11T03:01:36.497Z,100491.30
2023-01-11T03:04:06.416Z,100499.47
2023-01-11T03:06:36.595Z,100494.87
2023-01-11T03:09:27.331Z,100496.39
2023-01-11T03:12:29.364Z,100500.50
2023-01-11T03:15:05.533Z,100489.30
2023-01-11T03:17:47.247Z,100491.52
2023-01-11T03:20:22.892Z,100487.20
2023-01-11T03:23:07.571Z,100477.30
2023-01-11T03:26:02.963Z,100482.88
2023-01-11T03:28:35.758Z,100479.88
2023-01-11T03:31:25.165Z,100471.86
2023-01-11T03:34:15.902Z,100467.67
2023-01-11T03:36:48.417Z,100464.69
2023-01-11T03:39:30.018Z,100457.70
2023-01-11T03:42:02.849Z,100455.34
2023-01-11T03:44:35.968Z,100446.72
2023-01-11T03:47:10.434Z,100439.33
2023-01-11T03:49:46.283Z,100438.53
2023-01-11T03:52:18.837Z,100440.50
2023-01-11T03:54:49.824Z,100441.30
2023-01-11T03:57:25.407Z,100435.26
2023-01-11T03:59:55.240Z,100430.80
2023-01-11T04:02:27.505Z,100430.52
2023-01-11T04:04:57.348Z,100423.94
2023-01-11T04:07:27.126Z,100424.48
2023-01-11T04:09:58.476Z,100419.77
2023-01-11T04:12:28.296Z,100425.64
2023-01-11T04:14:58.383Z,100423.75
2023-01-11T04:17:28.183Z,100416.70
2023-01-11T04:19:57.963Z,100418.19
2023-01-11T04:22:27.725Z,100413.87
2023-01-11T04:24:57.495Z,100413.33
2023-01-11T04:27:27.276Z,100411.45
2023-01-11T04:29:57.061Z,100402.78
2023-01-11T04:32:26.878Z,100399.73
2023-01-11T04:34:56.719Z,100402.74
2023-01-11T04:37:26.481Z,100397.84
2023-01-11T04:39:56.269Z,100390.47
2023-01-11T04:42:26.095Z,100388.18
2023-01-11T04:44:56.247Z,100382.00
2023-01-11T04:47:26.535Z,100382.55
2023-01-11T04:49:56.277Z,100381.20
2023-01-11T04:52:26.037Z,100378.02
2023-01-11T04:54:55.857Z,100374.73
2023-01-11T04:57:25.671Z,100379.05
2023-01-11T04:59:55.467Z,100381.52
2023-01-11T05:02:25.278Z,100362.30
2023-01-11T05:04:55.033Z,100359.47
2023-01-11T05:07:24.486Z,100359.88
2023-01-11T05:09:54.227Z,100351.81
2023-01-11T05:12:23.757Z,100347.41
2023-01-11T05:14:53.584Z,100343.25
2023-01-11T05:17:23.034Z,100339.63
2023-01-11T05:19:52.818Z,100334.02
2023-01-11T05:22:22.639Z,100331.56
2023-01-11T05:24:52.392Z,100332.55
2023-01-11T05:27:22.151Z,100331.30
2023-01-11T05:29:51.930Z,100332.14
2023-01-11T05:32:21.565Z,100331.25
2023-01-11T05:34:51.311Z,100325.76
2023-01-11T05:37:20.973Z,100331.16
2023-01-11T05:39:50.718Z,100329.00
2023-01-11T05:42:21.988Z,100334.80
2023-01-11T05:45:09.946Z,100340.67
2023-01-11T05:47:39.821Z,100338.81
2023-01-11T05:50:10.422Z,100334.52
2023-01-11T05:52:40.308Z,100335.06
2023-01-11T05:55:10.123Z,100336.00
2023-01-11T05:57:44.473Z,100323.80
2023-01-11T06:00:15.353Z,100328.73
2023-01-11T06:02:45.301Z,100333.45
2023-01-11T06:05:15.233Z,100333.45
2023-01-11T06:07:44.970Z,100325.19
2023-01-11T06:10:14.711Z,100318.19
2023-01-11T06:12:44.515Z,100316.64
2023-01-11T06:15:14.340Z,100314.05
2023-01-11T06:17:44.159Z,100311.49
2023-01-11T06:20:13.849Z,100319.42
2023-01-11T06:22:43.569Z,100311.94
2023-01-11T06:25:13.010Z,100307.45
2023-01-11T06:27:42.757Z,100318.13
2023-01-11T06:30:13.447Z,100314.55
2023-01-11T06:32:43.204Z,100308.44
2023-01-11T06:35:12.962Z,100298.87
2023-01-11T06:37:42.795Z,100290.95
2023-01-11T06:40:12.932Z,100286.52
2023-01-11T06:42:42.650Z,100281.95
2023-01-11T06:45:12.911Z,100279.19
2023-01-11T06:47:42.946Z,100278.44
2023-01-11T06:50:12.831Z,100280.04
2023-01-11T06:52:42.552Z,100274.30
2023-01-11T06:55:12.253Z,100277.63
2023-01-11T06:57:43.263Z,100279.44
2023-01-11T07:00:13.676Z,100273.30
2023-01-11T07:02:43.439Z,100272.90
2023-01-11T07:05:14.182Z,100269.59
2023-01-11T07:07:44.902Z,100274.94
2023-01-11T07:10:16.999Z,100274.70
2023-01-11T07:12:46.758Z,100279.95
2023-01-11T07:15:16.492Z,100271.56
2023-01-11T07:17:47.705Z,100265.06
2023-01-11T07:20:17.948Z,100271.25
2023-01-11T07:22:47.406Z,100268.73
2023-01-11T07:25:17.320Z,100279.00
2023-01-11T07:27:47.124Z,100277.08
2023-01-11T07:30:16.744Z,100278.77
2023-01-11T07:32:46.497Z,100284.39
2023-01-11T07:35:16.087Z,100279.84
2023-01-11T07:37:45.824Z,100281.03
2023-01-11T07:40:16.390Z,100281.16
2023-01-11T07:43:08.513Z,100277.24
2023-01-11T07:45:45.733Z,100274.80
2023-01-11T07:48:12.446Z,100274.80
2023-01-11T07:50:45.123Z,100274.80
2023-01-11T07:53:14.828Z,100276.78
2023-01-11T07:55:44.571Z,100267.27
2023-01-11T07:58:15.472Z,100254.53
2023-01-11T08:00:46.160Z,100260.23
2023-01-11T08:03:16.088Z,100254.37
2023-01-11T08:05:51.486Z,100256.63
2023-01-11T08:08:21.115Z,100251.20
2023-01-11T08:11:09.244Z,100247.66
2023-01-11T08:13:57.143Z,100248.77
2023-01-11T08:16:27.638Z,100245.11
2023-01-11T08:18:57.329Z,100245.04
2023-01-11T08:21:27.091Z,100244.06
2023-01-11T08:23:58.872Z,100243.41
2023-01-11T08:26:29.156Z,100248.73
2023-01-11T08:28:58.663Z,100245.52
2023-01-11T08:31:28.597Z,100247.75
2023-01-11T08:33:58.679Z,100250.16
2023-01-11T08:36:28.494Z,100250.03
2023-01-11T08:38:59.165Z,100250.03
2023-01-11T08:41:28.836Z,100256.70
2023-01-11T08:43:58.535Z,100243.17
2023-01-11T08:46:28.353Z,100248.20
2023-01-11T08:48:58.159Z,100247.50
2023-01-11T08:51:27.966Z,100242.58
2023-01-11T08:53:57.971Z,100232.95
2023-01-11T08:56:28.207Z,100242.17
2023-01-11T08:58:57.937Z,100244.03
2023-01-11T09:01:28.101Z,100244.34
2023-01-11T09:03:57.963Z,100248.88
2023-01-11T09:06:27.821Z,100246.26
2023-01-11T09:08:57.586Z,100251.04
2023-01-11T09:11:45.246Z,100245.41
2023-01-11T09:14:14.999Z,100245.18
2023-01-11T09:16:44.786Z,100246.10
2023-01-11T09:19:14.764Z,100248.19
2023-01-11T09:21:47.458Z,100246.41
2023-01-11T09:24:17.068Z,100232.41
2023-01-11T09:26:46.955Z,100228.32
2023-01-11T09:29:16.630Z,100226.84
2023-01-11T09:31:46.654Z,100221.27
2023-01-11T09:34:16.573Z,100215.59
2023-01-11T09:36:47.988Z,100210.16
2023-01-11T09:39:19.675Z,100203.33
2023-01-11T09:42:18.497Z,100195.47
2023-01-11T09:44:54.245Z,100191.88
2023-01-11T09:47:44.940Z,100192.53
2023-01-11T09:50:21.980Z,100194.05
2023-01-11T09:53:05.640Z,100184.62
2023-01-11T09:55:50.616Z,100185.13
2023-01-11T09:58:38.529Z,100186.89
2023-01-11T10:01:20.493Z,100182.39
2023-01-11T10:04:11.835Z,100177.61
2023-01-11T10:07:04.259Z,100177.61
2023-01-11T10:18:29.213Z,100169.42
2023-01-11T10:18:37.501Z,100165.19
2023-01-11T10:20:53.533Z,100162.63
2023-01-11T10:23:29.590Z,100152.58
2023-01-11T10:26:02.031Z,100151.00
2023-01-11T10:28:45.788Z,100149.83
2023-01-11T10:31:28.510Z,100151.35
2023-01-11T10:34:05.827Z,100134.34
2023-01-11T10:36:48.787Z,100134.34
2023-01-11T10:39:44.856Z,100138.06
2023-01-11T10:42:23.851Z,100131.20
2023-01-11T10:45:05.362Z,100123.11
2023-01-11T10:47:43.228Z,100122.06
2023-01-11T10:50:21.985Z,100110.66
2023-01-11T10:53:03.648Z,100097.90
2023-01-11T10:55:36.759Z,100089.84
2023-01-11T10:58:15.576Z,100085.52
2023-01-11T11:00:55.560Z,100076.48
2023-01-11T11:03:46.902Z,100076.48
2023-01-11T11:06:33.292Z,100082.80
2023-01-11T11:09:14.821Z,100070.70
2023-01-11T11:11:53.275Z,100065.27
2023-01-11T11:14:42.095Z,100049.36
2023-01-11T11:17:32.770Z,100042.78
2023-01-11T11:20:05.876Z,100038.20
2023-01-11T11:22:35.623Z,100034.25
2023-01-11T11:25:18.335Z,100030.68
2023-01-11T11:27:54.290Z,100033.69
2023-01-11T11:30:38.201Z,100024.45
2023-01-11T11:33:10.984Z,100024.45
2023-01-11T11:35:44.839Z,100018.81
2023-01-11T11:38:32.191Z,100014.52
2023-01-11T11:41:13.948Z,100009.08
2023-01-11T11:43:43.770Z,100001.09
2023-01-11T11:46:20.179Z,99998.55
2023-01-11T11:49:14.263Z,99991.19
2023-01-11T11:51:46.669Z,99991.19
2023-01-11T11:54:28.381Z,99987.66
2023-01-11T11:57:01.356Z,99987.56
2023-01-11T11:59:33.168Z,99987.72
2023-01-11T12:02:06.146Z,99994.28
2023-01-11T12:04:41.788Z,99995.27
2023-01-11T12:07:20.577Z,99986.05
2023-01-11T12:09:53.900Z,99985.77
2023-01-11T12:12:26.873Z,99983.98
2023-01-11T12:15:20.840Z,99984.98
2023-01-11T12:17:51.282Z,99984.33
2023-01-11T12:20:29.824Z,99977.30
2023-01-11T12:23:18.043Z,99972.28
2023-01-11T12:25:59.466Z,99972.70
2023-01-11T12:28:38.108Z,99968.34
2023-01-11T12:31:19.554Z,99961.36
2023-01-11T12:33:52.407Z,99967.00
2023-01-11T12:36:25.246Z,99970.41
2023-01-11T12:39:11.018Z,99966.83
2023-01-11T12:42:05.005Z,99953.75
2023-01-11T12:44:43.616Z,99958.66
2023-01-11T12:47:51.110Z,99958.92
2023-01-11T12:50:26.780Z,99948.97
2023-01-11T12:53:27.169Z,99948.97
2023-01-11T12:56:31.905Z,99956.26
2023-01-11T12:59:13.841Z,99949.88
2023-01-11T13:02:01.643Z,99952.23
2023-01-11T13:05:08.570Z,99947.84
2023-01-11T13:07:44.438Z,99942.61
2023-01-11T13:10:17.345Z,99940.83
2023-01-11T13:12:55.680Z,99931.51
2023-01-11T13:15:34.268Z,99922.25
2023-01-11T13:18:11.742Z,99925.99
2023-01-11T13:21:00.712Z,99919.31
2023-01-11T13:23:41.994Z,99919.31
2023-01-11T13:26:20.564Z,99917.16
2023-01-11T13:29:05.111Z,99908.27
2023-01-11T13:31:37.004Z,99907.25
2023-01-11T13:34:15.443Z,99907.63
2023-01-11T13:36:48.242Z,99907.63
2023-01-11T13:39:21.111Z,99909.83
2023-01-11T13:41:53.992Z,99909.83
2023-01-11T13:44:26.593Z,99914.31
2023-01-11T13:47:14.301Z,99913.20
2023-01-11T13:49:59.213Z,99911.71
2023-01-11T13:52:41.000Z,99910.20
2023-01-11T13:55:20.874Z,99899.83
2023-01-11T13:57:57.146Z,99896.35
2023-01-11T14:00:41.675Z,99890.17
2023-01-11T14:03:23.434Z,99891.31
2023-01-11T14:06:29.360Z,99886.63
2023-01-11T14:09:21.235Z,99892.36
2023-01-11T14:12:06.021Z,99892.55
2023-01-11T14:14:55.049Z,99890.16
2023-01-11T14:17:42.993Z,99890.16
2023-01-11T14:20:21.309Z,99891.77
2023-01-11T14:23:11.992Z,99889.13
2023-01-11T14:25:56.084Z,99889.64
2023-01-11T14:28:31.839Z,99889.64
2023-01-11T14:31:04.744Z,99885.18
2023-01-11T14:34:11.880Z,99880.86
2023-01-11T14:37:03.806Z,99882.94
2023-01-11T14:40:06.425Z,99879.58
2023-01-11T14:43:03.212Z,99883.13
2023-01-11T14:45:47.625Z,99875.70
2023-01-11T14:48:28.859Z,99867.69
2023-01-11T14:51:34.373Z,99870.55
2023-01-11T14:54:13.117Z,99880.11
2023-01-11T14:56:48.690Z,99864.51
2023-01-11T14:59:33.264Z,99862.64
2023-01-11T15:02:09.039Z,99867.80
2023-01-11T15:04:57.126Z,99867.80
2023-01-11T15:07:33.514Z,99858.75
2023-01-11T15:10:20.450Z,99862.59
2023-01-11T15:12:50.611Z,99862.59
2023-01-11T15:15:26.724Z,99862.79
2023-01-11T15:18:15.626Z,99858.94
2023-01-11T15:20:56.984Z,99854.70
2023-01-11T15:23:27.275Z,99855.08
2023-01-11T15:26:05.883Z,99853.99
2023-01-11T15:28:41.593Z,99855.66
2023-01-11T15:31:32.628Z,99857.05
2023-01-11T15:34:04.594Z,99861.10
2023-01-11T15:36:54.270Z,99861.18
2023-01-11T15:39:35.781Z,99858.89
2023-01-11T15:42:12.967Z,99861.28
2023-01-11T15:44:51.452Z,99862.27
2023-01-11T15:47:41.768Z,99864.01
2023-01-11T15:50:48.446Z,99863.49
2023-01-11T15:53:48.901Z,99872.69
2023-01-11T15:56:38.932Z,99871.70
2023-01-11T15:59:32.076Z,99875.73
2023-01-11T16:02:29.397Z,99878.03
2023-01-11T16:05:02.237Z,99879.59
2023-01-11T16:07:54.423Z,99879.59
2023-01-11T16:10:45.777Z,99875.73
2023-01-11T16:13:33.471Z,99877.66
2023-01-11T16:16:06.364Z,99876.25
2023-01-11T16:18:42.197Z,99853.63
2023-01-11T16:21:18.062Z,99853.63
2023-01-11T16:23:47.847Z,99876.77
2023-01-11T16:26:20.928Z,99871.33
2023-01-11T16:28:59.355Z,99867.89
2023-01-11T16:31:32.228Z,99859.36
2023-01-11T16:34:09.733Z,99861.38
2023-01-11T16:36:42.032Z,99868.27
2023-01-11T16:39:14.472Z,99863.30
2023-01-11T16:41:51.033Z,99865.83
2023-01-11T16:44:33.202Z,99863.49
2023-01-11T16:47:14.476Z,99865.88
2023-01-11T16:49:49.612Z,99872.64
2023-01-11T16:52:38.029Z,99868.52
2023-01-11T16:55:22.374Z,99862.84
2023-01-11T16:57:55.622Z,99861.09
2023-01-11T17:00:30.448Z,99865.32
2023-01-11T17:03:18.487Z,99860.91
2023-01-11T17:06:07.647Z,99868.98
2023-01-11T17:08:42.845Z,99866.35
2023-01-11T17:11:33.186Z,99867.57
2023-01-11T17:14:27.064Z,99867.48
2023-01-11T17:17:00.412Z,99870.48
2023-01-11T17:19:32.859Z,99868.14
2023-01-11T17:22:08.618Z,99867.39
2023-01-11T17:24:44.567Z,99866.64
2023-01-11T17:27:24.106Z,99864.20
2023-01-11T17:29:56.863Z,99872.64
2023-01-11T17:32:36.625Z,99872.64
2023-01-11T17:35:09.457Z,99874.33
2023-01-11T17:37:39.849Z,99874.80
2023-01-11T17:40:27.669Z,99876.02
2023-01-11T17:43:21.097Z,99877.14
2023-01-11T17:45:59.514Z,99863.63
2023-01-11T17:48:30.255Z,99863.63
2023-01-11T17:51:01.897Z,99859.74
2023-01-11T17:53:37.391Z,99858.32
2023-01-11T17:56:09.417Z,99854.70
2023-01-11T17:58:39.923Z,99860.06
2023-01-11T18:01:16.413Z,99859.78
2023-01-11T18:03:57.062Z,99858.75
2023-01-11T18:06:32.905Z,99854.06
2023-01-11T18:09:05.669Z,99861.19
2023-01-11T18:11:38.436Z,99861.19
2023-01-11T18:14:11.313Z,99869.16
2023-01-11T18:16:59.006Z,99864.66
2023-01-11T18:19:34.704Z,99871.36
2023-01-11T18:22:07.373Z,99879.21
2023-01-11T18:24:40.546Z,99875.73
2023-01-11T18:27:27.542Z,99865.83
2023-01-11T18:30:01.295Z,99865.83
2023-01-11T18:32:36.897Z,99867.16
2023-01-11T18:35:09.948Z,99876.58
2023-01-11T18:37:39.697Z,99885.68
2023-01-11T18:40:14.859Z,99883.05
2023-01-11T18:42:53.130Z,99879.30
2023-01-11T18:45:24.485Z,99887.47
2023-01-11T18:47:54.036Z,99877.58
2023-01-11T18:52:52.326Z,99879.47
2023-01-11T18:55:22.127Z,99882.27
2023-01-11T18:57:51.934Z,99884.02
2023-01-11T19:00:21.906Z,99892.17
2023-01-11T19:05:22.056Z,99897.33
2023-01-11T19:07:51.952Z,99899.11
2023-01-11T19:10:23.410Z,99908.96
2023-01-11T19:12:53.256Z,99915.84
2023-01-11T19:15:22.942Z,99917.03
2023-01-11T19:17:52.714Z,99917.03
2023-01-11T19:20:22.289Z,99900.99
2023-01-11T19:22:52.253Z,99900.99
2023-01-11T19:25:21.763Z,99914.78
2023-01-11T19:27:53.463Z,99921.62
2023-01-11T19:30:22.378Z,99919.98
2023-01-11T19:32:53.998Z,99925.10
2023-01-11T19:35:23.676Z,99926.89
2023-01-11T19:37:53.211Z,99928.24
2023-01-11T19:40:23.022Z,99917.13
2023-01-11T19:42:52.839Z,99917.13
2023-01-11T19:45:22.423Z,99929.43
2023-01-11T19:47:52.586Z,99929.43
2023-01-11T19:50:22.391Z,99931.41
2023-01-11T19:52:52.138Z,99937.47
2023-01-11T19:55:22.251Z,99939.25
2023-01-11T19:57:52.023Z,99946.23
2023-01-11T20:00:21.724Z,99945.94
2023-01-11T20:02:51.975Z,99945.84
2023-01-11T20:05:21.695Z,99945.75
2023-01-11T20:07:51.512Z,99942.55
2023-01-11T20:10:21.420Z,99950.23
2023-01-11T20:12:51.200Z,99946.86
2023-01-11T20:15:21.368Z,99952.30
2023-01-11T20:17:51.474Z,99953.51
2023-01-11T20:20:21.293Z,99956.34
2023-01-11T20:22:51.157Z,99955.59
2023-01-11T20:25:20.824Z,99961.02
2023-01-11T20:27:50.565Z,99961.02
2023-01-11T20:30:20.343Z,99965.72
2023-01-11T20:32:50.191Z,99974.12
2023-01-11T20:35:19.739Z,99971.50
2023-01-11T20:37:49.509Z,99975.66
2023-01-11T20:40:19.418Z,99976.39
2023-01-11T20:42:49.120Z,99984.27
2023-01-11T20:45:19.009Z,99986.13
2023-01-11T20:47:48.860Z,99980.98
2023-01-11T20:50:18.549Z,99973.36
2023-01-11T20:52:50.325Z,99973.36
2023-01-11T20:55:20.118Z,99987.84
2023-01-11T20:57:51.436Z,99991.30
2023-01-11T21:00:21.767Z,99993.19
2023-01-11T21:02:52.935Z,99995.37
2023-01-11T21:05:22.492Z,99994.93
2023-01-11T21:07:54.318Z,100000.35
2023-01-11T21:10:26.211Z,99999.64
2023-01-11T21:12:57.656Z,99998.91
2023-01-11T21:15:27.129Z,99991.83
2023-01-11T21:17:56.900Z,99994.39
2023-01-11T21:20:26.756Z,99996.27
2023-01-11T21:22:56.855Z,99991.63
2023-01-11T21:25:27.000Z,99990.55
2023-01-11T21:27:57.606Z,99997.39
2023-01-11T21:30:27.108Z,99996.28
2023-01-11T21:32:57.228Z,99996.28
2023-01-11T21:35:27.252Z,100003.11
2023-01-11T21:37:57.024Z,100000.60
2023-01-11T21:40:26.875Z,100006.23
2023-01-11T21:42:59.449Z,100000.39
2023-01-11T21:45:29.200Z,100004.81
2023-01-11T21:47:59.059Z,100002.64
2023-01-11T21:50:28.799Z,100007.23
2023-01-11T21:52:59.239Z,100008.78
2023-01-11T21:55:28.786Z,100013.16
2023-01-11T21:57:58.566Z,100014.64
2023-01-11T22:00:29.976Z,100018.61
2023-01-11T22:02:59.886Z,100024.30
2023-01-11T22:05:31.314Z,100023.96
2023-01-11T22:08:01.085Z,100028.50
2023-01-11T22:10:30.908Z,100027.62
2023-01-11T22:13:01.195Z,100029.04
2023-01-11T22:15:30.912Z,100031.44
2023-01-11T22:18:00.651Z,100026.00
2023-01-11T22:20:30.441Z,100018.06
2023-01-11T22:23:00.183Z,100018.06
2023-01-11T22:25:30.103Z,100036.89
2023-01-11T22:27:59.810Z,100041.23
2023-01-11T22:30:29.584Z,100041.88
2023-01-11T22:33:00.705Z,100041.88
2023-01-11T22:35:31.135Z,100048.59
2023-01-11T22:38:01.434Z,100049.32
2023-01-11T22:40:31.011Z,100049.23
2023-01-11T22:43:00.760Z,100047.70
2023-01-11T22:45:30.624Z,100051.39
2023-01-11T22:48:00.463Z,100055.24
2023-01-11T22:50:30.235Z,100055.35
2023-01-11T22:53:00.530Z,100053.93
2023-01-11T22:55:30.286Z,100061.33
2023-01-11T22:58:00.064Z,100058.54
2023-01-11T23:00:29.982Z,100062.10
2023-01-11T23:02:59.766Z,100061.03
2023-01-11T23:05:29.591Z,100057.53
2023-01-11T23:07:59.542Z,100055.05
2023-01-11T23:10:29.578Z,100055.29
2023-01-11T23:13:17.243Z,100055.29
2023-01-11T23:15:48.522Z,100046.56
2023-01-11T23:18:18.353Z,100046.56
2023-01-11T23:20:48.370Z,100046.18
2023-01-11T23:23:17.809Z,100048.23
2023-01-11T23:25:47.584Z,100053.73
2023-01-11T23:28:17.151Z,100053.21
2023-01-11T23:30:46.926Z,100055.80
2023-01-11T23:33:16.664Z,100055.80
2023-01-11T23:35:47.947Z,100061.50
2023-01-11T23:38:17.420Z,100055.77
2023-01-11T23:41:05.015Z,100055.73
2023-01-11T23:43:39.277Z,100062.61
2023-01-11T23:46:26.828Z,100062.61
2023-01-11T23:48:56.606Z,100067.09
2023-01-11T23:51:26.372Z,100067.80
2023-01-11T23:53:58.684Z,100066.84
2023-01-11T23:56:30.816Z,100068.52
2023-01-11T23:59:00.627Z,100076.89
